sensor_id;sensor_type;location;lat;lon;timestamp;P1;durP1;ratioP1;P2;durP2;ratioP2
25549;SDS011;13444;50.562;7.262;2022-09-03T00:01:17;5.13;;;1.73;;
25549;SDS011;13444;50.562;7.262;2022-09-03T00:03:51;4.97;;;1.30;;
25549;SDS011;13444;50.562;7.262;2022-09-03T00:09:28;2.13;;;1.48;;
25549;SDS011;13444;50.562;7.262;2022-09-03T00:14:27;3.80;;;2.63;;
25549;SDS011;13444;50.562;7.262;2022-09-03T00:17:13;6.47;;;2.78;;
25549;SDS011;13444;50.562;7.262;2022-09-03T00:20:05;4.40;;;2.75;;
25549;SDS011;13444;50.562;7.262;2022-09-03T00:22:36;7.20;;;3.10;;
25549;SDS011;13444;50.562;7.262;2022-09-03T00:25:15;7.13;;;3.42;;
25549;SDS011;13444;50.562;7.262;2022-09-03T00:27:49;8.68;;;3.20;;
25549;SDS011;13444;50.562;7.262;2022-09-03T00:30:19;4.80;;;2.90;;
25549;SDS011;13444;50.562;7.262;2022-09-03T00:33:02;5.15;;;2.55;;
25549;SDS011;13444;50.562;7.262;2022-09-03T00:35:37;4.72;;;2.72;;
25549;SDS011;13444;50.562;7.262;2022-09-03T00:38:08;4.03;;;2.35;;
25549;SDS011;13444;50.562;7.262;2022-09-03T00:46:23;3.80;;;2.15;;
25549;SDS011;13444;50.562;7.262;2022-09-03T00:49:04;3.78;;;2.15;;
25549;SDS011;13444;50.562;7.262;2022-09-03T00:51:58;4.88;;;2.08;;
25549;SDS011;13444;50.562;7.262;2022-09-03T00:54:46;5.35;;;2.38;;
25549;SDS011;13444;50.562;7.262;2022-09-03T01:00:58;3.67;;;1.67;;
25549;SDS011;13444;50.562;7.262;2022-09-03T01:03:35;2.80;;;1.90;;
25549;SDS011;13444;50.562;7.262;2022-09-03T01:06:21;4.07;;;2.20;;
25549;SDS011;13444;50.562;7.262;2022-09-03T01:11:48;9.80;;;4.63;;
25549;SDS011;13444;50.562;7.262;2022-09-03T01:14:51;12.38;;;5.68;;
25549;SDS011;13444;50.562;7.262;2022-09-03T01:23:21;6.40;;;4.25;;
25549;SDS011;13444;50.562;7.262;2022-09-03T01:26:22;7.68;;;4.25;;
25549;SDS011;13444;50.562;7.262;2022-09-03T01:29:13;9.55;;;4.68;;
25549;SDS011;13444;50.562;7.262;2022-09-03T01:31:45;8.38;;;4.57;;
25549;SDS011;13444;50.562;7.262;2022-09-03T01:34:29;7.18;;;4.03;;
25549;SDS011;13444;50.562;7.262;2022-09-03T01:40:16;9.30;;;5.53;;
25549;SDS011;13444;50.562;7.262;2022-09-03T01:43:01;9.75;;;5.40;;
25549;SDS011;13444;50.562;7.262;2022-09-03T01:45:52;7.35;;;5.00;;
25549;SDS011;13444;50.562;7.262;2022-09-03T01:48:30;6.10;;;4.22;;
25549;SDS011;13444;50.562;7.262;2022-09-03T01:51:10;5.45;;;3.58;;
25549;SDS011;13444;50.562;7.262;2022-09-03T01:56:48;7.35;;;3.45;;
25549;SDS011;13444;50.562;7.262;2022-09-03T01:59:32;7.82;;;3.60;;
25549;SDS011;13444;50.562;7.262;2022-09-03T02:02:18;6.30;;;2.97;;
25549;SDS011;13444;50.562;7.262;2022-09-03T02:07:43;6.72;;;3.22;;
25549;SDS011;13444;50.562;7.262;2022-09-03T02:10:13;4.93;;;2.83;;
25549;SDS011;13444;50.562;7.262;2022-09-03T02:12:53;8.88;;;2.85;;
25549;SDS011;13444;50.562;7.262;2022-09-03T02:15:23;6.20;;;2.22;;
25549;SDS011;13444;50.562;7.262;2022-09-03T02:17:51;4.50;;;2.35;;
25549;SDS011;13444;50.562;7.262;2022-09-03T02:20:21;5.30;;;2.53;;
25549;SDS011;13444;50.562;7.262;2022-09-03T02:22:50;4.03;;;2.17;;
25549;SDS011;13444;50.562;7.262;2022-09-03T02:25:18;4.45;;;2.25;;
25549;SDS011;13444;50.562;7.262;2022-09-03T02:27:46;3.70;;;2.20;;
25549;SDS011;13444;50.562;7.262;2022-09-03T02:30:13;4.45;;;2.05;;
25549;SDS011;13444;50.562;7.262;2022-09-03T02:32:39;4.15;;;2.50;;
25549;SDS011;13444;50.562;7.262;2022-09-03T02:35:04;6.90;;;2.47;;
25549;SDS011;13444;50.562;7.262;2022-09-03T02:37:30;5.15;;;2.75;;
25549;SDS011;13444;50.562;7.262;2022-09-03T02:39:56;3.40;;;2.40;;
25549;SDS011;13444;50.562;7.262;2022-09-03T02:42:22;3.03;;;2.30;;
25549;SDS011;13444;50.562;7.262;2022-09-03T02:44:49;2.35;;;1.70;;
25549;SDS011;13444;50.562;7.262;2022-09-03T02:47:18;5.50;;;2.10;;
25549;SDS011;13444;50.562;7.262;2022-09-03T02:49:46;3.60;;;2.20;;
25549;SDS011;13444;50.562;7.262;2022-09-03T02:52:12;4.18;;;2.20;;
25549;SDS011;13444;50.562;7.262;2022-09-03T02:54:38;5.30;;;2.10;;
25549;SDS011;13444;50.562;7.262;2022-09-03T02:57:08;3.55;;;1.73;;
25549;SDS011;13444;50.562;7.262;2022-09-03T02:59:35;3.35;;;2.00;;
25549;SDS011;13444;50.562;7.262;2022-09-03T03:02:01;4.18;;;1.70;;
25549;SDS011;13444;50.562;7.262;2022-09-03T03:04:28;4.40;;;1.70;;
25549;SDS011;13444;50.562;7.262;2022-09-03T03:06:54;3.03;;;1.55;;
25549;SDS011;13444;50.562;7.262;2022-09-03T03:09:20;3.55;;;1.50;;
25549;SDS011;13444;50.562;7.262;2022-09-03T03:11:45;1.63;;;1.30;;
25549;SDS011;13444;50.562;7.262;2022-09-03T03:14:14;4.43;;;1.58;;
25549;SDS011;13444;50.562;7.262;2022-09-03T03:16:39;3.22;;;1.60;;
25549;SDS011;13444;50.562;7.262;2022-09-03T03:19:05;1.83;;;1.40;;
25549;SDS011;13444;50.562;7.262;2022-09-03T03:21:30;7.10;;;1.70;;
25549;SDS011;13444;50.562;7.262;2022-09-03T03:23:56;2.13;;;1.60;;
25549;SDS011;13444;50.562;7.262;2022-09-03T03:26:21;5.57;;;1.70;;
25549;SDS011;13444;50.562;7.262;2022-09-03T03:28:48;3.55;;;1.20;;
25549;SDS011;13444;50.562;7.262;2022-09-03T03:31:16;1.77;;;1.15;;
25549;SDS011;13444;50.562;7.262;2022-09-03T03:33:43;2.15;;;1.40;;
25549;SDS011;13444;50.562;7.262;2022-09-03T03:36:14;4.78;;;1.30;;
25549;SDS011;13444;50.562;7.262;2022-09-03T03:38:40;3.17;;;1.60;;
25549;SDS011;13444;50.562;7.262;2022-09-03T03:41:08;2.33;;;1.45;;
25549;SDS011;13444;50.562;7.262;2022-09-03T03:43:46;5.57;;;1.60;;
25549;SDS011;13444;50.562;7.262;2022-09-03T03:46:12;4.05;;;1.42;;
25549;SDS011;13444;50.562;7.262;2022-09-03T03:48:41;8.75;;;1.52;;
25549;SDS011;13444;50.562;7.262;2022-09-03T03:51:07;1.95;;;1.30;;
25549;SDS011;13444;50.562;7.262;2022-09-03T03:53:34;4.25;;;1.40;;
25549;SDS011;13444;50.562;7.262;2022-09-03T03:56:02;3.72;;;1.60;;
25549;SDS011;13444;50.562;7.262;2022-09-03T03:58:30;4.90;;;1.20;;
25549;SDS011;13444;50.562;7.262;2022-09-03T04:01:09;5.07;;;1.55;;
25549;SDS011;13444;50.562;7.262;2022-09-03T04:03:38;7.00;;;1.50;;
25549;SDS011;13444;50.562;7.262;2022-09-03T04:06:04;1.63;;;1.33;;
25549;SDS011;13444;50.562;7.262;2022-09-03T04:08:30;5.03;;;1.50;;
25549;SDS011;13444;50.562;7.262;2022-09-03T04:11:02;2.30;;;1.30;;
25549;SDS011;13444;50.562;7.262;2022-09-03T04:13:30;4.30;;;1.50;;
25549;SDS011;13444;50.562;7.262;2022-09-03T04:15:59;2.30;;;1.40;;
25549;SDS011;13444;50.562;7.262;2022-09-03T04:18:26;3.08;;;1.70;;
25549;SDS011;13444;50.562;7.262;2022-09-03T04:20:51;4.93;;;1.60;;
25549;SDS011;13444;50.562;7.262;2022-09-03T04:23:17;2.83;;;1.60;;
25549;SDS011;13444;50.562;7.262;2022-09-03T04:25:42;2.38;;;1.40;;
25549;SDS011;13444;50.562;7.262;2022-09-03T04:28:08;3.75;;;1.60;;
25549;SDS011;13444;50.562;7.262;2022-09-03T04:30:35;5.05;;;1.27;;
25549;SDS011;13444;50.562;7.262;2022-09-03T04:33:01;2.70;;;1.98;;
25549;SDS011;13444;50.562;7.262;2022-09-03T04:35:26;4.45;;;2.55;;
25549;SDS011;13444;50.562;7.262;2022-09-03T04:37:53;3.25;;;1.63;;
25549;SDS011;13444;50.562;7.262;2022-09-03T04:40:21;4.10;;;1.75;;
25549;SDS011;13444;50.562;7.262;2022-09-03T04:42:46;3.05;;;1.40;;
25549;SDS011;13444;50.562;7.262;2022-09-03T04:45:12;2.42;;;1.45;;
25549;SDS011;13444;50.562;7.262;2022-09-03T04:47:42;3.70;;;1.55;;
25549;SDS011;13444;50.562;7.262;2022-09-03T04:50:10;10.23;;;1.92;;
25549;SDS011;13444;50.562;7.262;2022-09-03T04:52:37;4.82;;;1.63;;
25549;SDS011;13444;50.562;7.262;2022-09-03T04:55:03;4.90;;;1.40;;
25549;SDS011;13444;50.562;7.262;2022-09-03T04:57:28;2.92;;;1.42;;
25549;SDS011;13444;50.562;7.262;2022-09-03T04:59:58;4.53;;;1.65;;
25549;SDS011;13444;50.562;7.262;2022-09-03T05:02:24;4.20;;;1.77;;
25549;SDS011;13444;50.562;7.262;2022-09-03T05:04:49;4.32;;;1.60;;
25549;SDS011;13444;50.562;7.262;2022-09-03T05:07:16;2.55;;;1.52;;
25549;SDS011;13444;50.562;7.262;2022-09-03T05:09:41;2.50;;;1.20;;
25549;SDS011;13444;50.562;7.262;2022-09-03T05:12:07;4.82;;;1.33;;
25549;SDS011;13444;50.562;7.262;2022-09-03T05:14:33;4.15;;;1.42;;
25549;SDS011;13444;50.562;7.262;2022-09-03T05:16:58;1.75;;;1.10;;
25549;SDS011;13444;50.562;7.262;2022-09-03T05:19:23;2.97;;;1.52;;
25549;SDS011;13444;50.562;7.262;2022-09-03T05:21:49;5.55;;;1.80;;
25549;SDS011;13444;50.562;7.262;2022-09-03T05:24:15;2.47;;;1.50;;
25549;SDS011;13444;50.562;7.262;2022-09-03T05:26:40;3.78;;;1.35;;
25549;SDS011;13444;50.562;7.262;2022-09-03T05:29:06;2.63;;;1.42;;
25549;SDS011;13444;50.562;7.262;2022-09-03T05:31:32;4.82;;;1.50;;
25549;SDS011;13444;50.562;7.262;2022-09-03T05:34:00;6.07;;;1.40;;
25549;SDS011;13444;50.562;7.262;2022-09-03T05:36:28;4.18;;;1.35;;
25549;SDS011;13444;50.562;7.262;2022-09-03T05:38:56;3.33;;;1.35;;
25549;SDS011;13444;50.562;7.262;2022-09-03T05:41:22;4.53;;;1.50;;
25549;SDS011;13444;50.562;7.262;2022-09-03T05:43:49;6.88;;;1.38;;
25549;SDS011;13444;50.562;7.262;2022-09-03T05:46:17;3.03;;;1.50;;
25549;SDS011;13444;50.562;7.262;2022-09-03T05:48:43;3.30;;;1.23;;
25549;SDS011;13444;50.562;7.262;2022-09-03T05:51:10;1.40;;;1.10;;
25549;SDS011;13444;50.562;7.262;2022-09-03T05:53:38;2.22;;;1.05;;
25549;SDS011;13444;50.562;7.262;2022-09-03T05:56:05;1.13;;;1.02;;
25549;SDS011;13444;50.562;7.262;2022-09-03T05:58:37;2.50;;;1.00;;
25549;SDS011;13444;50.562;7.262;2022-09-03T06:01:11;2.08;;;0.93;;
25549;SDS011;13444;50.562;7.262;2022-09-03T06:03:39;74.57;;;10.02;;
25549;SDS011;13444;50.562;7.262;2022-09-03T06:06:06;10.27;;;2.10;;
25549;SDS011;13444;50.562;7.262;2022-09-03T06:08:32;5.40;;;1.58;;
25549;SDS011;13444;50.562;7.262;2022-09-03T06:10:59;3.70;;;1.58;;
25549;SDS011;13444;50.562;7.262;2022-09-03T06:13:25;4.60;;;1.73;;
25549;SDS011;13444;50.562;7.262;2022-09-03T06:15:57;3.63;;;1.17;;
25549;SDS011;13444;50.562;7.262;2022-09-03T06:18:25;5.53;;;1.52;;
25549;SDS011;13444;50.562;7.262;2022-09-03T06:20:55;1.70;;;1.20;;
25549;SDS011;13444;50.562;7.262;2022-09-03T06:23:21;2.40;;;1.58;;
25549;SDS011;13444;50.562;7.262;2022-09-03T06:25:47;3.17;;;1.35;;
25549;SDS011;13444;50.562;7.262;2022-09-03T06:28:23;1.98;;;1.30;;
25549;SDS011;13444;50.562;7.262;2022-09-03T06:30:51;2.55;;;1.38;;
25549;SDS011;13444;50.562;7.262;2022-09-03T06:33:16;3.80;;;1.40;;
25549;SDS011;13444;50.562;7.262;2022-09-03T06:35:42;6.10;;;1.80;;
25549;SDS011;13444;50.562;7.262;2022-09-03T06:38:08;4.57;;;1.52;;
25549;SDS011;13444;50.562;7.262;2022-09-03T06:40:36;4.43;;;1.55;;
25549;SDS011;13444;50.562;7.262;2022-09-03T06:43:02;6.53;;;1.60;;
25549;SDS011;13444;50.562;7.262;2022-09-03T06:45:28;8.38;;;2.60;;
25549;SDS011;13444;50.562;7.262;2022-09-03T06:47:54;9.50;;;2.88;;
25549;SDS011;13444;50.562;7.262;2022-09-03T06:50:20;3.08;;;1.92;;
25549;SDS011;13444;50.562;7.262;2022-09-03T06:52:52;4.65;;;1.48;;
25549;SDS011;13444;50.562;7.262;2022-09-03T06:55:21;2.33;;;1.10;;
25549;SDS011;13444;50.562;7.262;2022-09-03T06:57:47;5.00;;;1.27;;
25549;SDS011;13444;50.562;7.262;2022-09-03T07:00:13;4.03;;;1.23;;
25549;SDS011;13444;50.562;7.262;2022-09-03T07:02:39;4.53;;;1.48;;
25549;SDS011;13444;50.562;7.262;2022-09-03T07:05:05;3.85;;;1.30;;
25549;SDS011;13444;50.562;7.262;2022-09-03T07:07:32;3.13;;;1.20;;
25549;SDS011;13444;50.562;7.262;2022-09-03T07:09:58;3.22;;;1.08;;
25549;SDS011;13444;50.562;7.262;2022-09-03T07:12:23;5.03;;;1.40;;
25549;SDS011;13444;50.562;7.262;2022-09-03T07:14:49;4.68;;;1.40;;
25549;SDS011;13444;50.562;7.262;2022-09-03T07:17:14;4.95;;;1.08;;
25549;SDS011;13444;50.562;7.262;2022-09-03T07:19:40;3.53;;;1.38;;
25549;SDS011;13444;50.562;7.262;2022-09-03T07:22:06;4.53;;;1.55;;
25549;SDS011;13444;50.562;7.262;2022-09-03T07:24:33;1.77;;;1.20;;
25549;SDS011;13444;50.562;7.262;2022-09-03T07:26:59;4.45;;;1.30;;
25549;SDS011;13444;50.562;7.262;2022-09-03T07:29:25;6.25;;;1.65;;
25549;SDS011;13444;50.562;7.262;2022-09-03T07:31:52;2.47;;;1.00;;
25549;SDS011;13444;50.562;7.262;2022-09-03T07:34:18;6.10;;;1.73;;
25549;SDS011;13444;50.562;7.262;2022-09-03T07:36:45;2.03;;;1.40;;
25549;SDS011;13444;50.562;7.262;2022-09-03T07:39:12;3.13;;;1.42;;
25549;SDS011;13444;50.562;7.262;2022-09-03T07:41:39;6.65;;;1.73;;
25549;SDS011;13444;50.562;7.262;2022-09-03T07:44:08;2.70;;;1.60;;
25549;SDS011;13444;50.562;7.262;2022-09-03T07:46:34;4.47;;;1.52;;
25549;SDS011;13444;50.562;7.262;2022-09-03T07:49:01;3.92;;;1.50;;
25549;SDS011;13444;50.562;7.262;2022-09-03T07:51:30;3.85;;;1.90;;
25549;SDS011;13444;50.562;7.262;2022-09-03T07:53:58;2.38;;;1.38;;
25549;SDS011;13444;50.562;7.262;2022-09-03T07:56:26;3.35;;;1.30;;
25549;SDS011;13444;50.562;7.262;2022-09-03T07:58:55;3.55;;;1.30;;
25549;SDS011;13444;50.562;7.262;2022-09-03T08:01:21;2.60;;;1.25;;
25549;SDS011;13444;50.562;7.262;2022-09-03T08:03:48;3.33;;;1.38;;
25549;SDS011;13444;50.562;7.262;2022-09-03T08:06:17;4.65;;;1.83;;
25549;SDS011;13444;50.562;7.262;2022-09-03T08:08:44;4.15;;;1.50;;
25549;SDS011;13444;50.562;7.262;2022-09-03T08:11:14;3.05;;;1.48;;
25549;SDS011;13444;50.562;7.262;2022-09-03T08:13:44;1.90;;;1.15;;
25549;SDS011;13444;50.562;7.262;2022-09-03T08:16:13;5.72;;;1.48;;
25549;SDS011;13444;50.562;7.262;2022-09-03T08:18:40;2.75;;;1.20;;
25549;SDS011;13444;50.562;7.262;2022-09-03T08:21:11;1.58;;;0.98;;
25549;SDS011;13444;50.562;7.262;2022-09-03T08:23:40;5.45;;;1.55;;
25549;SDS011;13444;50.562;7.262;2022-09-03T08:26:07;3.70;;;1.70;;
25549;SDS011;13444;50.562;7.262;2022-09-03T08:28:33;4.10;;;1.30;;
25549;SDS011;13444;50.562;7.262;2022-09-03T08:31:03;3.13;;;1.42;;
25549;SDS011;13444;50.562;7.262;2022-09-03T08:33:40;1.67;;;1.20;;
25549;SDS011;13444;50.562;7.262;2022-09-03T08:36:11;8.88;;;1.67;;
25549;SDS011;13444;50.562;7.262;2022-09-03T08:38:39;2.85;;;1.58;;
25549;SDS011;13444;50.562;7.262;2022-09-03T08:41:14;4.82;;;1.50;;
25549;SDS011;13444;50.562;7.262;2022-09-03T08:43:58;3.05;;;1.30;;
25549;SDS011;13444;50.562;7.262;2022-09-03T08:46:59;3.53;;;1.50;;
25549;SDS011;13444;50.562;7.262;2022-09-03T08:52:29;4.13;;;1.20;;
25549;SDS011;13444;50.562;7.262;2022-09-03T08:57:51;4.47;;;1.20;;
25549;SDS011;13444;50.562;7.262;2022-09-03T09:06:15;5.22;;;1.55;;
25549;SDS011;13444;50.562;7.262;2022-09-03T09:15:00;1.75;;;1.20;;
25549;SDS011;13444;50.562;7.262;2022-09-03T09:20:26;5.28;;;1.40;;
25549;SDS011;13444;50.562;7.262;2022-09-03T09:23:19;4.07;;;1.58;;
25549;SDS011;13444;50.562;7.262;2022-09-03T09:25:58;1.83;;;1.35;;
25549;SDS011;13444;50.562;7.262;2022-09-03T09:28:30;2.58;;;1.75;;
25549;SDS011;13444;50.562;7.262;2022-09-03T09:30:59;3.97;;;1.63;;
25549;SDS011;13444;50.562;7.262;2022-09-03T09:33:28;4.90;;;1.40;;
25549;SDS011;13444;50.562;7.262;2022-09-03T09:35:55;2.65;;;1.60;;
25549;SDS011;13444;50.562;7.262;2022-09-03T09:38:26;3.97;;;1.25;;
25549;SDS011;13444;50.562;7.262;2022-09-03T09:41:12;2.10;;;1.50;;
25549;SDS011;13444;50.562;7.262;2022-09-03T09:43:44;2.28;;;1.30;;
25549;SDS011;13444;50.562;7.262;2022-09-03T09:46:15;5.07;;;1.30;;
25549;SDS011;13444;50.562;7.262;2022-09-03T09:48:50;3.05;;;1.50;;
25549;SDS011;13444;50.562;7.262;2022-09-03T09:51:21;7.28;;;1.70;;
25549;SDS011;13444;50.562;7.262;2022-09-03T09:56:38;2.65;;;1.60;;
25549;SDS011;13444;50.562;7.262;2022-09-03T09:59:08;4.50;;;1.65;;
25549;SDS011;13444;50.562;7.262;2022-09-03T10:01:35;3.40;;;1.40;;
25549;SDS011;13444;50.562;7.262;2022-09-03T10:04:28;5.25;;;1.50;;
25549;SDS011;13444;50.562;7.262;2022-09-03T10:06:57;3.60;;;1.63;;
25549;SDS011;13444;50.562;7.262;2022-09-03T10:09:28;3.63;;;1.40;;
25549;SDS011;13444;50.562;7.262;2022-09-03T10:12:00;4.82;;;1.30;;
25549;SDS011;13444;50.562;7.262;2022-09-03T10:14:39;5.38;;;1.42;;
25549;SDS011;13444;50.562;7.262;2022-09-03T10:17:28;6.35;;;1.67;;
25549;SDS011;13444;50.562;7.262;2022-09-03T10:21:05;1.85;;;1.40;;
25549;SDS011;13444;50.562;7.262;2022-09-03T10:25:47;7.22;;;1.70;;
25549;SDS011;13444;50.562;7.262;2022-09-03T10:28:17;3.92;;;1.15;;
25549;SDS011;13444;50.562;7.262;2022-09-03T10:30:53;7.15;;;1.70;;
25549;SDS011;13444;50.562;7.262;2022-09-03T10:33:43;5.93;;;1.60;;
25549;SDS011;13444;50.562;7.262;2022-09-03T10:36:38;4.05;;;1.30;;
25549;SDS011;13444;50.562;7.262;2022-09-03T10:39:24;3.25;;;1.70;;
25549;SDS011;13444;50.562;7.262;2022-09-03T10:45:16;3.92;;;1.48;;
25549;SDS011;13444;50.562;7.262;2022-09-03T10:50:41;3.95;;;1.75;;
25549;SDS011;13444;50.562;7.262;2022-09-03T10:53:20;6.80;;;2.00;;
25549;SDS011;13444;50.562;7.262;2022-09-03T10:59:09;5.28;;;1.80;;
25549;SDS011;13444;50.562;7.262;2022-09-03T11:04:32;4.82;;;1.70;;
25549;SDS011;13444;50.562;7.262;2022-09-03T11:07:26;3.05;;;1.88;;
25549;SDS011;13444;50.562;7.262;2022-09-03T11:13:07;5.03;;;2.10;;
25549;SDS011;13444;50.562;7.262;2022-09-03T11:15:51;4.43;;;1.77;;
25549;SDS011;13444;50.562;7.262;2022-09-03T11:18:24;3.50;;;1.60;;
25549;SDS011;13444;50.562;7.262;2022-09-03T11:20:58;5.97;;;1.80;;
25549;SDS011;13444;50.562;7.262;2022-09-03T11:23:29;4.35;;;2.40;;
25549;SDS011;13444;50.562;7.262;2022-09-03T11:26:00;3.13;;;1.90;;
25549;SDS011;13444;50.562;7.262;2022-09-03T11:28:42;8.50;;;1.60;;
25549;SDS011;13444;50.562;7.262;2022-09-03T11:34:11;6.35;;;1.95;;
25549;SDS011;13444;50.562;7.262;2022-09-03T11:36:39;4.82;;;1.83;;
25549;SDS011;13444;50.562;7.262;2022-09-03T11:39:38;5.45;;;2.00;;
25549;SDS011;13444;50.562;7.262;2022-09-03T11:42:00;3.38;;;1.88;;
25549;SDS011;13444;50.562;7.262;2022-09-03T11:44:41;3.05;;;1.70;;
25549;SDS011;13444;50.562;7.262;2022-09-03T11:47:15;7.40;;;2.22;;
25549;SDS011;13444;50.562;7.262;2022-09-03T11:49:50;3.13;;;1.88;;
25549;SDS011;13444;50.562;7.262;2022-09-03T11:52:24;3.10;;;1.83;;
25549;SDS011;13444;50.562;7.262;2022-09-03T11:54:51;5.47;;;1.90;;
25549;SDS011;13444;50.562;7.262;2022-09-03T11:57:25;5.85;;;2.10;;
25549;SDS011;13444;50.562;7.262;2022-09-03T11:59:53;2.83;;;1.73;;
25549;SDS011;13444;50.562;7.262;2022-09-03T12:02:31;2.72;;;1.85;;
25549;SDS011;13444;50.562;7.262;2022-09-03T12:13:25;2.88;;;1.90;;
25549;SDS011;13444;50.562;7.262;2022-09-03T12:18:46;9.38;;;1.50;;
25549;SDS011;13444;50.562;7.262;2022-09-03T12:21:16;5.72;;;1.85;;
25549;SDS011;13444;50.562;7.262;2022-09-03T12:23:44;6.78;;;1.90;;
25549;SDS011;13444;50.562;7.262;2022-09-03T12:26:14;5.88;;;1.80;;
25549;SDS011;13444;50.562;7.262;2022-09-03T12:28:45;3.35;;;1.52;;
25549;SDS011;13444;50.562;7.262;2022-09-03T12:31:22;4.20;;;1.92;;
25549;SDS011;13444;50.562;7.262;2022-09-03T12:34:10;4.22;;;1.73;;
25549;SDS011;13444;50.562;7.262;2022-09-03T12:36:42;4.40;;;1.50;;
25549;SDS011;13444;50.562;7.262;2022-09-03T12:39:13;3.83;;;1.65;;
25549;SDS011;13444;50.562;7.262;2022-09-03T12:44:30;2.05;;;1.52;;
25549;SDS011;13444;50.562;7.262;2022-09-03T12:47:09;4.68;;;1.70;;
25549;SDS011;13444;50.562;7.262;2022-09-03T12:49:42;7.45;;;1.40;;
25549;SDS011;13444;50.562;7.262;2022-09-03T12:55:16;6.90;;;1.88;;
25549;SDS011;13444;50.562;7.262;2022-09-03T12:57:51;4.95;;;1.90;;
25549;SDS011;13444;50.562;7.262;2022-09-03T13:00:39;2.90;;;1.73;;
25549;SDS011;13444;50.562;7.262;2022-09-03T13:03:18;6.22;;;2.10;;
25549;SDS011;13444;50.562;7.262;2022-09-03T13:05:57;2.03;;;1.45;;
25549;SDS011;13444;50.562;7.262;2022-09-03T13:08:31;3.78;;;1.77;;
25549;SDS011;13444;50.562;7.262;2022-09-03T13:11:01;1.73;;;1.30;;
25549;SDS011;13444;50.562;7.262;2022-09-03T13:13:32;2.50;;;1.50;;
25549;SDS011;13444;50.562;7.262;2022-09-03T13:24:45;3.90;;;1.75;;
25549;SDS011;13444;50.562;7.262;2022-09-03T13:30:10;3.33;;;1.55;;
25549;SDS011;13444;50.562;7.262;2022-09-03T13:35:53;5.78;;;1.60;;
25549;SDS011;13444;50.562;7.262;2022-09-03T13:38:34;2.72;;;1.63;;
25549;SDS011;13444;50.562;7.262;2022-09-03T13:41:16;3.80;;;1.90;;
25549;SDS011;13444;50.562;7.262;2022-09-03T13:44:23;6.25;;;1.50;;
25549;SDS011;13444;50.562;7.262;2022-09-03T13:47:00;2.67;;;1.50;;
25549;SDS011;13444;50.562;7.262;2022-09-03T13:49:52;4.00;;;1.40;;
25549;SDS011;13444;50.562;7.262;2022-09-03T13:52:57;3.42;;;1.85;;
25549;SDS011;13444;50.562;7.262;2022-09-03T13:56:00;2.55;;;1.45;;
25549;SDS011;13444;50.562;7.262;2022-09-03T13:58:36;1.55;;;1.10;;
25549;SDS011;13444;50.562;7.262;2022-09-03T14:01:10;3.20;;;1.00;;
25549;SDS011;13444;50.562;7.262;2022-09-03T14:03:45;1.80;;;1.30;;
25549;SDS011;13444;50.562;7.262;2022-09-03T14:06:23;2.03;;;1.23;;
25549;SDS011;13444;50.562;7.262;2022-09-03T14:09:19;2.65;;;1.33;;
25549;SDS011;13444;50.562;7.262;2022-09-03T14:12:13;3.25;;;1.13;;
25549;SDS011;13444;50.562;7.262;2022-09-03T14:17:39;3.45;;;1.60;;
25549;SDS011;13444;50.562;7.262;2022-09-03T14:20:28;3.08;;;1.40;;
25549;SDS011;13444;50.562;7.262;2022-09-03T14:25:58;7.32;;;1.35;;
25549;SDS011;13444;50.562;7.262;2022-09-03T14:28:34;1.75;;;1.20;;
25549;SDS011;13444;50.562;7.262;2022-09-03T14:36:54;4.15;;;1.35;;
25549;SDS011;13444;50.562;7.262;2022-09-03T14:39:37;1.63;;;1.13;;
25549;SDS011;13444;50.562;7.262;2022-09-03T14:42:35;2.80;;;1.52;;
25549;SDS011;13444;50.562;7.262;2022-09-03T14:45:51;3.42;;;1.38;;
25549;SDS011;13444;50.562;7.262;2022-09-03T14:48:29;2.05;;;1.25;;
25549;SDS011;13444;50.562;7.262;2022-09-03T14:56:49;2.97;;;1.25;;
25549;SDS011;13444;50.562;7.262;2022-09-03T15:02:28;2.08;;;1.00;;
25549;SDS011;13444;50.562;7.262;2022-09-03T15:07:45;2.83;;;1.10;;
25549;SDS011;13444;50.562;7.262;2022-09-03T15:10:27;1.60;;;1.10;;
25549;SDS011;13444;50.562;7.262;2022-09-03T15:13:11;3.00;;;1.17;;
25549;SDS011;13444;50.562;7.262;2022-09-03T15:15:57;1.65;;;1.30;;
25549;SDS011;13444;50.562;7.262;2022-09-03T15:27:00;2.28;;;1.00;;
25549;SDS011;13444;50.562;7.262;2022-09-03T15:30:07;6.07;;;0.90;;
25549;SDS011;13444;50.562;7.262;2022-09-03T15:38:20;9.65;;;1.30;;
25549;SDS011;13444;50.562;7.262;2022-09-03T15:44:15;5.18;;;1.60;;
25549;SDS011;13444;50.562;7.262;2022-09-03T15:49:24;4.07;;;1.50;;
25549;SDS011;13444;50.562;7.262;2022-09-03T15:54:47;7.10;;;1.73;;
25549;SDS011;13444;50.562;7.262;2022-09-03T15:59:49;7.82;;;1.80;;
25549;SDS011;13444;50.562;7.262;2022-09-03T16:02:24;9.23;;;2.00;;
25549;SDS011;13444;50.562;7.262;2022-09-03T16:15:46;4.75;;;1.50;;
25549;SDS011;13444;50.562;7.262;2022-09-03T16:20:53;5.07;;;1.60;;
25549;SDS011;13444;50.562;7.262;2022-09-03T16:26:20;4.43;;;1.50;;
25549;SDS011;13444;50.562;7.262;2022-09-03T16:28:53;8.20;;;1.48;;
25549;SDS011;13444;50.562;7.262;2022-09-03T16:31:27;3.08;;;1.23;;
25549;SDS011;13444;50.562;7.262;2022-09-03T16:45:49;3.35;;;1.75;;
25549;SDS011;13444;50.562;7.262;2022-09-03T16:51:23;4.30;;;1.50;;
25549;SDS011;13444;50.562;7.262;2022-09-03T16:54:13;5.53;;;2.03;;
25549;SDS011;13444;50.562;7.262;2022-09-03T17:00:02;5.20;;;1.98;;
25549;SDS011;13444;50.562;7.262;2022-09-03T17:08:28;3.78;;;2.08;;
25549;SDS011;13444;50.562;7.262;2022-09-03T17:11:16;6.60;;;1.63;;
25549;SDS011;13444;50.562;7.262;2022-09-03T17:16:40;4.85;;;2.05;;
25549;SDS011;13444;50.562;7.262;2022-09-03T17:22:02;3.47;;;2.00;;
25549;SDS011;13444;50.562;7.262;2022-09-03T17:24:52;3.42;;;2.10;;
25549;SDS011;13444;50.562;7.262;2022-09-03T17:35:16;3.83;;;1.83;;
25549;SDS011;13444;50.562;7.262;2022-09-03T17:38:12;2.92;;;1.88;;
25549;SDS011;13444;50.562;7.262;2022-09-03T17:41:22;3.83;;;2.22;;
25549;SDS011;13444;50.562;7.262;2022-09-03T17:49:09;4.25;;;2.30;;
25549;SDS011;13444;50.562;7.262;2022-09-03T17:51:48;3.25;;;2.30;;
25549;SDS011;13444;50.562;7.262;2022-09-03T17:59:35;4.18;;;2.38;;
25549;SDS011;13444;50.562;7.262;2022-09-03T18:02:15;6.93;;;2.75;;
25549;SDS011;13444;50.562;7.262;2022-09-03T18:04:58;6.15;;;2.72;;
25549;SDS011;13444;50.562;7.262;2022-09-03T18:07:29;6.43;;;2.85;;
25549;SDS011;13444;50.562;7.262;2022-09-03T18:10:28;2.90;;;2.20;;
25549;SDS011;13444;50.562;7.262;2022-09-03T18:13:15;3.03;;;2.47;;
25549;SDS011;13444;50.562;7.262;2022-09-03T18:18:25;4.38;;;2.35;;
25549;SDS011;13444;50.562;7.262;2022-09-03T18:20:54;3.72;;;2.33;;
25549;SDS011;13444;50.562;7.262;2022-09-03T18:23:46;5.32;;;2.53;;
25549;SDS011;13444;50.562;7.262;2022-09-03T18:26:40;5.40;;;2.60;;
25549;SDS011;13444;50.562;7.262;2022-09-03T18:29:36;3.72;;;2.40;;
25549;SDS011;13444;50.562;7.262;2022-09-03T18:32:28;4.28;;;2.80;;
25549;SDS011;13444;50.562;7.262;2022-09-03T18:35:12;4.95;;;2.63;;
25549;SDS011;13444;50.562;7.262;2022-09-03T18:37:57;3.80;;;2.33;;
25549;SDS011;13444;50.562;7.262;2022-09-03T18:44:22;4.05;;;2.35;;
25549;SDS011;13444;50.562;7.262;2022-09-03T18:50:25;5.00;;;2.47;;
25549;SDS011;13444;50.562;7.262;2022-09-03T19:05:32;4.15;;;3.17;;
25549;SDS011;13444;50.562;7.262;2022-09-03T19:08:33;5.50;;;3.38;;
25549;SDS011;13444;50.562;7.262;2022-09-03T19:11:30;6.03;;;3.22;;
25549;SDS011;13444;50.562;7.262;2022-09-03T19:24:10;4.35;;;3.25;;
25549;SDS011;13444;50.562;7.262;2022-09-03T19:27:09;4.13;;;3.67;;
25549;SDS011;13444;50.562;7.262;2022-09-03T19:30:06;4.72;;;3.50;;
25549;SDS011;13444;50.562;7.262;2022-09-03T19:36:09;3.78;;;2.92;;
25549;SDS011;13444;50.562;7.262;2022-09-03T19:39:15;3.63;;;2.92;;
25549;SDS011;13444;50.562;7.262;2022-09-03T19:45:41;3.03;;;2.72;;
25549;SDS011;13444;50.562;7.262;2022-09-03T19:48:55;3.10;;;2.80;;
25549;SDS011;13444;50.562;7.262;2022-09-03T19:54:56;4.32;;;3.10;;